createdAt,value
2022-11-29T00:04:37.887Z,-2.07
2022-11-29T00:09:41.021Z,-2.20
2022-11-29T00:14:44.536Z,-2.30
2022-11-29T00:19:47.662Z,-2.29
2022-11-29T00:24:50.573Z,-2.34
2022-11-29T00:29:53.474Z,-2.35
2022-11-29T00:34:59.386Z,-2.63
2022-11-29T00:40:02.950Z,-2.41
2022-11-29T00:45:06.960Z,-2.66
2022-11-29T00:50:10.133Z,-2.45
2022-11-29T00:55:13.008Z,-2.45
2022-11-29T01:00:16.520Z,-2.51
2022-11-29T01:05:19.414Z,-2.55
2022-11-29T01:10:22.507Z,-2.81
2022-11-29T01:15:25.720Z,-2.74
2022-11-29T01:20:28.823Z,-2.25
2022-11-29T01:25:32.421Z,-2.35
2022-11-29T01:30:37.521Z,-2.51
2022-11-29T01:35:40.553Z,-2.54
2022-11-29T01:40:43.693Z,-2.80
2022-11-29T01:45:46.712Z,-2.73
2022-11-29T01:50:49.806Z,-2.72
2022-11-29T01:55:58.079Z,-2.66
2022-11-29T02:01:01.691Z,-2.75
2022-11-29T02:06:05.491Z,-2.90
2022-11-29T02:11:27.063Z,-2.80
2022-11-29T02:16:33.075Z,-2.86
2022-11-29T02:22:03.085Z,-3.11
2022-11-29T02:27:43.019Z,-2.88
2022-11-29T02:33:23.290Z,-2.82
2022-11-29T02:38:46.786Z,-3.06
2022-11-29T02:44:28.273Z,-2.89
2022-11-29T02:50:01.339Z,-2.89
2022-11-29T02:55:16.493Z,-2.87
2022-11-29T03:00:21.236Z,-2.88
2022-11-29T03:05:45.027Z,-3.11
2022-11-29T03:10:50.749Z,-3.03
2022-11-29T03:16:05.929Z,-3.11
2022-11-29T03:21:19.739Z,-3.11
2022-11-29T03:26:48.829Z,-3.10
2022-11-29T03:32:01.883Z,-3.18
2022-11-29T03:37:17.796Z,-3.45
2022-11-29T03:42:33.231Z,-3.28
2022-11-29T03:47:43.049Z,-3.24
2022-11-29T03:53:08.112Z,-3.31
2022-11-29T03:58:32.684Z,-3.24
2022-11-29T04:04:04.492Z,-3.46
2022-11-29T04:09:28.269Z,-3.17
2022-11-29T04:14:49.379Z,-3.17
2022-11-29T04:20:10.898Z,-3.17
2022-11-29T04:25:22.858Z,-3.37
2022-11-29T04:30:27.833Z,-3.31
2022-11-29T04:35:54.225Z,-3.16
2022-11-29T04:41:09.452Z,-3.19
2022-11-29T04:46:37.032Z,-3.04
2022-11-29T04:52:06.117Z,-3.24
2022-11-29T04:57:17.899Z,-3.08
2022-11-29T05:02:41.873Z,-3.11
2022-11-29T05:08:23.002Z,-3.12
2022-11-29T05:13:42.679Z,-3.06
2022-11-29T05:19:02.030Z,-3.02
2022-11-29T05:24:18.275Z,-3.00
2022-11-29T05:29:39.576Z,-2.99
2022-11-29T05:34:57.376Z,-2.86
2022-11-29T05:40:44.448Z,-2.62
2022-11-29T05:45:58.270Z,-2.61
2022-11-29T05:51:23.187Z,-2.44
2022-11-29T05:59:27.995Z,-0.70
2022-11-29T06:05:04.913Z,-2.06
2022-11-29T06:10:21.563Z,-2.35
2022-11-29T06:15:50.662Z,-2.06
2022-11-29T06:21:18.102Z,-1.79
2022-11-29T06:26:40.985Z,-1.18
2022-11-29T06:31:48.623Z,-0.64
2022-11-29T06:37:02.750Z,-0.59
2022-11-29T06:42:05.721Z,-0.21
2022-11-29T06:47:39.594Z,-0.07
2022-11-29T06:53:01.217Z,0.60
2022-11-29T06:58:09.631Z,2.93
2022-11-29T07:03:32.489Z,6.32
2022-11-29T07:08:35.764Z,8.48
2022-11-29T07:13:39.058Z,9.83
2022-11-29T07:18:51.203Z,11.30
2022-11-29T07:24:05.232Z,12.84
2022-11-29T07:29:27.254Z,14.80
2022-11-29T07:35:02.757Z,14.81
2022-11-29T07:40:40.662Z,16.91
2022-11-29T07:45:43.692Z,15.46
2022-11-29T07:50:47.039Z,17.36
2022-11-29T07:55:50.960Z,17.25
2022-11-29T08:00:53.961Z,18.29
2022-11-29T08:05:57.648Z,19.08
2022-11-29T08:11:00.849Z,19.86
2022-11-29T08:16:05.161Z,19.65
2022-11-29T08:21:08.485Z,19.96
2022-11-29T08:26:11.528Z,20.81
2022-11-29T08:31:14.551Z,22.34
2022-11-29T08:36:20.629Z,23.53
2022-11-29T08:41:23.701Z,23.95
2022-11-29T08:46:46.688Z,22.31
2022-11-29T08:51:53.545Z,22.37
2022-11-29T08:57:31.491Z,23.26
2022-11-29T09:02:20.767Z,22.65
2022-11-29T09:07:23.813Z,24.43
2022-11-29T09:12:26.768Z,23.98
2022-11-29T09:17:29.668Z,23.05
2022-11-29T09:22:32.608Z,22.69
2022-11-29T09:27:35.703Z,23.47
2022-11-29T09:32:38.616Z,24.00
2022-11-29T09:37:44.652Z,23.64
2022-11-29T09:43:21.167Z,23.27
2022-11-29T09:48:59.618Z,22.10
2022-11-29T09:54:20.046Z,24.64
2022-11-29T09:59:34.079Z,23.61
2022-11-29T10:04:41.270Z,22.75
2022-11-29T10:10:13.758Z,24.32
2022-11-29T10:15:24.826Z,19.65
2022-11-29T10:20:36.437Z,21.17
2022-11-29T10:26:08.200Z,19.05
2022-11-29T10:31:21.978Z,20.47
2022-11-29T10:36:46.099Z,18.57
2022-11-29T10:42:02.486Z,23.33
2022-11-29T10:47:10.658Z,24.48
2022-11-29T10:52:20.051Z,24.62
2022-11-29T10:57:23.400Z,24.77
2022-11-29T11:02:27.979Z,22.63
2022-11-29T11:07:36.286Z,22.60
2022-11-29T11:12:39.287Z,23.79
2022-11-29T11:17:56.694Z,23.42
2022-11-29T11:23:02.711Z,22.09
2022-11-29T11:28:20.780Z,22.08
2022-11-29T11:33:30.293Z,21.50
2022-11-29T11:38:35.128Z,20.78
2022-11-29T11:43:38.964Z,21.28
2022-11-29T11:48:42.690Z,21.01
2022-11-29T11:53:51.491Z,19.76
2022-11-29T11:58:57.644Z,17.91
2022-11-29T12:04:30.914Z,15.87
2022-11-29T12:09:49.360Z,14.42
2022-11-29T12:14:56.777Z,13.13
2022-11-29T12:20:10.346Z,13.64
2022-11-29T12:25:19.829Z,13.44
2022-11-29T12:30:22.867Z,11.84
2022-11-29T12:36:09.268Z,9.38
2022-11-29T12:41:29.988Z,7.88
2022-11-29T12:46:34.503Z,8.44
2022-11-29T12:52:06.285Z,8.24
2022-11-29T12:57:15.352Z,6.29
2022-11-29T13:02:30.396Z,5.15
2022-11-29T13:07:45.162Z,4.16
2022-11-29T13:13:23.948Z,3.56
2022-11-29T13:18:27.154Z,3.19
2022-11-29T13:24:00.715Z,2.86
2022-11-29T13:29:02.723Z,2.62
2022-11-29T13:34:08.774Z,2.11
2022-11-29T13:39:40.820Z,2.36
2022-11-29T13:44:57.111Z,2.23
2022-11-29T13:50:04.313Z,2.05
2022-11-29T13:55:29.339Z,1.96
2022-11-29T14:00:51.278Z,1.92
2022-11-29T14:06:05.173Z,1.68
2022-11-29T14:11:37.702Z,1.52
2022-11-29T14:16:43.544Z,1.39
2022-11-29T14:22:07.496Z,1.16
2022-11-29T14:27:13.152Z,0.96
2022-11-29T14:32:35.831Z,0.97
2022-11-29T14:38:04.281Z,0.90
2022-11-29T14:43:30.292Z,0.83
2022-11-29T14:48:34.623Z,0.60
2022-11-29T14:53:39.412Z,0.41
2022-11-29T14:58:42.500Z,0.44
2022-11-29T15:03:50.112Z,0.17
2022-11-29T15:09:04.585Z,0.30
2022-11-29T15:14:19.144Z,0.12
2022-11-29T15:19:49.217Z,0.05
2022-11-29T15:25:06.036Z,0.16
2022-11-29T15:30:39.384Z,-0.21
2022-11-29T15:35:50.146Z,-0.39
2022-11-29T15:40:55.535Z,-0.17
2022-11-29T15:45:59.217Z,-0.31
2022-11-29T15:51:17.086Z,-0.47
2022-11-29T15:56:29.037Z,-0.37
2022-11-29T16:01:33.288Z,-0.35
2022-11-29T16:06:42.357Z,-0.46
2022-11-29T16:11:46.986Z,-0.46
2022-11-29T16:16:52.871Z,-0.71
2022-11-29T16:22:21.511Z,-0.63
2022-11-29T16:27:25.237Z,-0.94
2022-11-29T16:32:29.652Z,-0.70
2022-11-29T16:37:39.901Z,-0.83
2022-11-29T16:42:48.975Z,-1.08
2022-11-29T16:47:59.749Z,-0.97
2022-11-29T16:53:35.510Z,-0.97
2022-11-29T16:59:25.150Z,-1.17
2022-11-29T17:04:03.272Z,-1.17
2022-11-29T17:09:06.514Z,-1.28
2022-11-29T17:14:10.027Z,-1.52
2022-11-29T17:19:13.723Z,-1.29
2022-11-29T17:24:19.689Z,-1.22
2022-11-29T17:29:22.649Z,-1.32
2022-11-29T17:34:25.727Z,-1.36
2022-11-29T17:39:28.732Z,-1.51
2022-11-29T17:44:34.210Z,-1.63
2022-11-29T17:49:37.124Z,-1.86
2022-11-29T17:54:40.287Z,-1.64
2022-11-29T17:59:43.478Z,-1.82
2022-11-29T18:04:46.665Z,-1.86
2022-11-29T18:09:49.606Z,-1.83
2022-11-29T18:14:52.531Z,-2.00
2022-11-29T18:19:55.564Z,-1.85
2022-11-29T18:25:22.683Z,-1.98
2022-11-29T18:30:21.464Z,-1.91
2022-11-29T18:35:24.384Z,-2.09
2022-11-29T18:40:27.390Z,-2.38
2022-11-29T18:45:30.910Z,-2.20
2022-11-29T18:50:33.935Z,-2.25
2022-11-29T18:55:37.465Z,-2.22
2022-11-29T19:00:41.165Z,-2.59
2022-11-29T19:05:52.913Z,-2.28
2022-11-29T19:10:55.982Z,-2.37
2022-11-29T19:15:58.968Z,-2.53
2022-11-29T19:21:11.705Z,-2.60
2022-11-29T19:26:15.878Z,-2.73
2022-11-29T19:31:20.929Z,-2.74
2022-11-29T19:36:27.291Z,-3.03
2022-11-29T19:41:35.196Z,-2.59
2022-11-29T19:46:41.525Z,-2.84
2022-11-29T19:51:44.541Z,-2.73
2022-11-29T19:56:47.602Z,-2.87
2022-11-29T20:01:50.756Z,-2.83
2022-11-29T20:06:54.943Z,-3.04
2022-11-29T20:11:57.828Z,-3.01
2022-11-29T20:17:00.710Z,-3.06
2022-11-29T20:22:03.761Z,-3.03
2022-11-29T20:27:07.242Z,-3.02
2022-11-29T20:32:10.164Z,-2.88
2022-11-29T20:37:22.104Z,-2.80
2022-11-29T20:42:52.565Z,-2.94
2022-11-29T20:48:13.607Z,-3.06
2022-11-29T20:53:36.585Z,-3.09
2022-11-29T20:58:40.266Z,-3.07
2022-11-29T21:03:43.408Z,-3.33
2022-11-29T21:08:46.654Z,-3.22
2022-11-29T21:13:49.915Z,-3.44
2022-11-29T21:18:58.584Z,-3.31
2022-11-29T21:24:05.715Z,-3.34
2022-11-29T21:29:20.135Z,-3.20
2022-11-29T21:34:23.032Z,-3.61
2022-11-29T21:39:34.325Z,-3.43
2022-11-29T21:44:37.248Z,-3.68
2022-11-29T21:49:40.467Z,-3.61
2022-11-29T21:54:43.819Z,-3.63
2022-11-29T21:59:46.947Z,-3.65
2022-11-29T22:04:50.123Z,-3.79
2022-11-29T22:09:53.101Z,-3.85
2022-11-29T22:14:55.987Z,-3.87
2022-11-29T22:19:58.902Z,-3.89
2022-11-29T22:25:01.892Z,-3.81
2022-11-29T22:30:07.096Z,-3.89
2022-11-29T22:35:10.177Z,-4.02
2022-11-29T22:40:13.396Z,-4.05
2022-11-29T22:45:16.349Z,-4.04
2022-11-29T22:50:19.369Z,-4.23
2022-11-29T22:55:22.302Z,-4.32
2022-11-29T23:00:25.519Z,-4.20
2022-11-29T23:05:32.231Z,-4.37
2022-11-29T23:10:35.583Z,-4.24
2022-11-29T23:15:38.705Z,-4.16
2022-11-29T23:20:41.777Z,-4.31
2022-11-29T23:25:49.728Z,-4.37
2022-11-29T23:30:54.516Z,-4.32
2022-11-29T23:36:06.754Z,-4.22
2022-11-29T23:41:10.215Z,-4.40
2022-11-29T23:46:20.636Z,-4.32
2022-11-29T23:51:23.684Z,-4.42
2022-11-29T23:56:26.820Z,-4.65
